Time;durP1;ratioP1;P1;durP2;ratioP2;P2;SDS_P1;SDS_P2;PMS_P1;PMS_P2;Temp;Humidity;BMP_temperature;BMP_pressure;BME280_temperature;BME280_humidity;BME280_pressure;Samples;Min_cycle;Max_cycle;Signal;HPM_P1;HPM_P2
2023/10/21 00:01:16;;;;;;;;;;;24.10;50.50;;;;;;5097388;28;20429;-57
2023/10/21 00:03:43;;;;;;;;;;;24.10;50.50;;;;;;5097448;28;19963;-58
2023/10/21 00:06:11;;;;;;;;;;;24.10;50.50;;;;;;5097172;28;19924;-59
2023/10/21 00:08:38;;;;;;;;;;;24.10;50.50;;;;;;5097254;28;19924;-58
2023/10/21 00:11:05;;;;;;;;;;;24.10;50.50;;;;;;5097498;28;19924;-59
2023/10/21 00:13:32;;;;;;;;;;;24.10;50.50;;;;;;5096830;28;19967;-59
2023/10/21 00:15:59;;;;;;;;;;;24.10;50.50;;;;;;5097188;28;20208;-61
2023/10/21 00:18:26;;;;;;;;;;;24.10;50.50;;;;;;5096788;28;19963;-60
2023/10/21 00:20:54;;;;;;;;;;;24.10;50.50;;;;;;5096643;28;20368;-64
2023/10/21 00:23:21;;;;;;;;;;;24.10;50.50;;;;;;5096294;28;19963;-62
2023/10/21 00:25:48;;;;;;;;;;;24.10;50.50;;;;;;5096777;28;19924;-58
2023/10/21 00:28:16;;;;;;;;;;;24.10;50.60;;;;;;5097092;28;19978;-64
2023/10/21 00:30:45;;;;;;;;;;;24.10;50.50;;;;;;5096292;28;19953;-57
2023/10/21 00:33:13;;;;;;;;;;;24.10;50.60;;;;;;5096630;28;19978;-59
2023/10/21 00:35:47;;;;;;;;;;;24.10;50.50;;;;;;5096088;28;20291;-58
2023/10/21 00:38:14;;;;;;;;;;;24.10;50.50;;;;;;5096911;28;20371;-58
2023/10/21 00:40:51;;;;;;;;;;;24.10;50.50;;;;;;5096664;28;19949;-57
2023/10/21 00:43:38;;;;;;;;;;;24.10;50.60;;;;;;5095802;28;19960;-58
2023/10/21 00:46:09;;;;;;;;;;;24.10;50.50;;;;;;5076216;28;19924;-61
2023/10/21 00:48:37;;;;;;;;;;;24.10;50.60;;;;;;5076213;28;20369;-61
2023/10/21 00:51:04;;;;;;;;;;;24.10;50.60;;;;;;5076413;28;20027;-57
2023/10/21 00:53:31;;;;;;;;;;;24.10;50.60;;;;;;5076036;28;19936;-57
2023/10/21 00:55:59;;;;;;;;;;;24.10;50.60;;;;;;5075827;28;19970;-57
2023/10/21 00:58:33;;;;;;;;;;;24.10;50.60;;;;;;5076115;28;19932;-57
2023/10/21 01:01:06;;;;;;;;;;;24.10;50.50;;;;;;5095175;28;19992;-58
2023/10/21 01:03:34;;;;;;;;;;;24.10;50.50;;;;;;5095900;28;19931;-57
2023/10/21 01:06:02;;;;;;;;;;;24.10;50.50;;;;;;5096068;28;19932;-58
2023/10/21 01:08:29;;;;;;;;;;;24.10;50.50;;;;;;5095918;28;19930;-58
2023/10/21 01:10:58;;;;;;;;;;;24.10;50.50;;;;;;5096126;28;20341;-57
2023/10/21 01:13:25;;;;;;;;;;;24.10;50.50;;;;;;5095647;28;19967;-58
2023/10/21 01:15:52;;;;;;;;;;;24.10;50.60;;;;;;5095918;28;19960;-58
2023/10/21 01:18:19;;;;;;;;;;;24.10;50.50;;;;;;5095792;28;19981;-57
2023/10/21 01:20:53;;;;;;;;;;;24.10;50.60;;;;;;5095608;28;19924;-58
2023/10/21 01:23:20;;;;;;;;;;;24.10;50.60;;;;;;5096209;28;19933;-58
2023/10/21 01:25:47;;;;;;;;;;;24.10;50.50;;;;;;5095568;28;20308;-59
2023/10/21 01:28:14;;;;;;;;;;;24.10;50.60;;;;;;5095680;28;19928;-58
2023/10/21 01:30:41;;;;;;;;;;;24.00;50.50;;;;;;5096042;28;19928;-59
2023/10/21 01:33:08;;;;;;;;;;;24.00;50.50;;;;;;5095942;28;19931;-66
2023/10/21 01:35:35;;;;;;;;;;;24.00;50.50;;;;;;5095495;28;20384;-62
2023/10/21 01:38:03;;;;;;;;;;;24.00;50.60;;;;;;5095407;28;19924;-62
2023/10/21 01:40:30;;;;;;;;;;;24.00;51.00;;;;;;5095853;28;19924;-58
2023/10/21 01:42:57;;;;;;;;;;;24.00;50.60;;;;;;5095282;28;19931;-58
2023/10/21 01:45:24;;;;;;;;;;;24.00;50.60;;;;;;5095302;28;19930;-58
2023/10/21 01:47:51;;;;;;;;;;;24.00;50.60;;;;;;5095411;28;20023;-58
2023/10/21 01:50:18;;;;;;;;;;;24.00;50.60;;;;;;5095491;28;20027;-58
2023/10/21 01:52:45;;;;;;;;;;;24.00;50.60;;;;;;5094960;28;19930;-59
2023/10/21 01:55:12;;;;;;;;;;;24.00;50.70;;;;;;5095038;28;19931;-59
2023/10/21 01:57:40;;;;;;;;;;;24.00;50.60;;;;;;5095144;28;20003;-59
2023/10/21 02:00:10;;;;;;;;;;;24.00;50.70;;;;;;5077493;28;19924;-59
2023/10/21 02:02:38;;;;;;;;;;;24.00;50.70;;;;;;5094822;28;19931;-59
2023/10/21 02:05:06;;;;;;;;;;;23.90;50.60;;;;;;5094925;28;20369;-60
2023/10/21 02:07:37;;;;;;;;;;;24.00;50.70;;;;;;5094251;28;19928;-59
2023/10/21 02:10:04;;;;;;;;;;;23.90;50.60;;;;;;5094982;28;19970;-58
2023/10/21 02:12:32;;;;;;;;;;;24.00;50.70;;;;;;5092949;28;19993;-58
2023/10/21 02:14:59;;;;;;;;;;;24.00;50.70;;;;;;5095091;28;20361;-59
2023/10/21 02:17:27;;;;;;;;;;;24.00;50.70;;;;;;5094858;28;19928;-59
2023/10/21 02:19:57;;;;;;;;;;;23.90;50.70;;;;;;5094396;28;19924;-59
2023/10/21 02:22:24;;;;;;;;;;;24.00;50.80;;;;;;5094726;28;19930;-58
2023/10/21 02:24:53;;;;;;;;;;;24.00;50.80;;;;;;5094584;28;19928;-60
2023/10/21 02:27:20;;;;;;;;;;;23.90;50.70;;;;;;5094497;28;19978;-59
2023/10/21 02:29:48;;;;;;;;;;;23.90;50.70;;;;;;5094561;28;19970;-59
2023/10/21 02:32:15;;;;;;;;;;;24.00;50.80;;;;;;5093596;28;20261;-59
2023/10/21 02:34:42;;;;;;;;;;;24.00;50.70;;;;;;5094341;28;20437;-59
2023/10/21 02:37:09;;;;;;;;;;;23.90;50.70;;;;;;5094262;28;19966;-59
2023/10/21 02:39:37;;;;;;;;;;;23.90;50.70;;;;;;5094317;28;19924;-59
2023/10/21 02:42:04;;;;;;;;;;;23.90;50.70;;;;;;5094567;28;19971;-59
2023/10/21 02:44:31;;;;;;;;;;;23.90;50.70;;;;;;5094459;28;20014;-59
2023/10/21 02:46:58;;;;;;;;;;;23.90;50.80;;;;;;5094446;28;20060;-59
2023/10/21 02:49:25;;;;;;;;;;;23.90;50.80;;;;;;5094357;28;19924;-59
2023/10/21 02:51:52;;;;;;;;;;;23.90;50.80;;;;;;5094244;28;19932;-60
2023/10/21 02:54:19;;;;;;;;;;;23.90;50.80;;;;;;5093911;28;19931;-59
2023/10/21 02:56:46;;;;;;;;;;;23.90;50.80;;;;;;5094098;28;19931;-59
2023/10/21 02:59:13;;;;;;;;;;;23.90;50.80;;;;;;5093742;28;20304;-59
2023/10/21 03:01:40;;;;;;;;;;;23.90;50.90;;;;;;5093723;28;20297;-59
2023/10/21 03:04:07;;;;;;;;;;;23.90;50.90;;;;;;5093511;28;19928;-59
2023/10/21 03:06:36;;;;;;;;;;;23.90;50.90;;;;;;5093698;28;19931;-59
2023/10/21 03:09:06;;;;;;;;;;;23.90;50.90;;;;;;5094153;28;19928;-59
2023/10/21 03:11:33;;;;;;;;;;;23.90;50.90;;;;;;5093737;28;19925;-59
2023/10/21 03:14:00;;;;;;;;;;;23.90;50.90;;;;;;5093985;28;19928;-58
2023/10/21 03:16:27;;;;;;;;;;;23.90;50.90;;;;;;5093651;28;20012;-58
2023/10/21 03:18:54;;;;;;;;;;;23.90;51.00;;;;;;5094066;28;19924;-58
2023/10/21 03:21:21;;;;;;;;;;;23.80;51.10;;;;;;5093663;28;19927;-58
2023/10/21 03:23:48;;;;;;;;;;;23.80;50.90;;;;;;5093833;28;19930;-59
2023/10/21 03:26:15;;;;;;;;;;;23.80;51.00;;;;;;5093952;28;20018;-58
2023/10/21 03:28:43;;;;;;;;;;;23.80;51.00;;;;;;5093753;28;19964;-58
2023/10/21 03:31:11;;;;;;;;;;;23.80;51.00;;;;;;5093909;28;19924;-58
2023/10/21 03:33:38;;;;;;;;;;;23.80;51.00;;;;;;5093455;28;20429;-59
2023/10/21 03:36:05;;;;;;;;;;;23.90;51.00;;;;;;5093758;28;19924;-58
2023/10/21 03:38:33;;;;;;;;;;;23.80;51.00;;;;;;5093446;28;20430;-58
2023/10/21 03:41:02;;;;;;;;;;;23.90;51.00;;;;;;5093479;28;19972;-58
2023/10/21 03:43:29;;;;;;;;;;;23.80;51.00;;;;;;5093604;28;19974;-58
2023/10/21 03:45:56;;;;;;;;;;;23.90;51.00;;;;;;5093758;28;19994;-59
2023/10/21 03:48:23;;;;;;;;;;;23.80;51.10;;;;;;5093341;28;20400;-58
2023/10/21 03:50:51;;;;;;;;;;;23.80;51.00;;;;;;5093663;28;19924;-58
2023/10/21 03:53:18;;;;;;;;;;;23.80;51.00;;;;;;5093841;28;20392;-58
2023/10/21 03:55:45;;;;;;;;;;;23.80;51.00;;;;;;5093478;28;19950;-58
2023/10/21 03:58:13;;;;;;;;;;;23.80;51.00;;;;;;5093126;28;19928;-59
2023/10/21 04:00:40;;;;;;;;;;;23.80;51.00;;;;;;5093212;28;19974;-58
2023/10/21 04:03:07;;;;;;;;;;;23.80;51.00;;;;;;5093421;28;19924;-59
2023/10/21 04:05:35;;;;;;;;;;;23.80;51.00;;;;;;5093428;28;19930;-59
2023/10/21 04:08:05;;;;;;;;;;;23.80;51.10;;;;;;5093310;28;19932;-58
2023/10/21 04:10:32;;;;;;;;;;;23.80;51.10;;;;;;5093623;28;19928;-58
2023/10/21 04:13:01;;;;;;;;;;;23.80;51.10;;;;;;5092989;28;19924;-58
2023/10/21 04:15:28;;;;;;;;;;;23.70;51.00;;;;;;5093829;28;20338;-59
2023/10/21 04:17:55;;;;;;;;;;;23.70;51.10;;;;;;5097151;28;19924;-59
2023/10/21 04:20:22;;;;;;;;;;;23.80;51.10;;;;;;5096813;28;20437;-58
2023/10/21 04:22:49;;;;;;;;;;;23.70;51.10;;;;;;5097055;28;19985;-58
2023/10/21 04:25:16;;;;;;;;;;;23.70;51.10;;;;;;5096836;28;20422;-58
2023/10/21 04:27:44;;;;;;;;;;;23.70;51.10;;;;;;5096518;28;20002;-59
2023/10/21 04:30:11;;;;;;;;;;;23.70;51.10;;;;;;5096829;28;20380;-59
2023/10/21 04:32:39;;;;;;;;;;;23.70;51.10;;;;;;5096597;28;19924;-59
2023/10/21 04:35:06;;;;;;;;;;;23.70;51.10;;;;;;5096937;28;19939;-57
2023/10/21 04:37:33;;;;;;;;;;;23.70;51.20;;;;;;5096833;28;19928;-57
2023/10/21 04:40:00;;;;;;;;;;;23.70;51.30;;;;;;5096756;28;19924;-57
2023/10/21 04:42:28;;;;;;;;;;;23.70;51.40;;;;;;5096368;28;19969;-56
2023/10/21 04:44:55;;;;;;;;;;;23.70;51.50;;;;;;5095338;28;19931;-57
2023/10/21 04:47:22;;;;;;;;;;;23.70;51.60;;;;;;5096592;28;19928;-58
2023/10/21 04:49:49;;;;;;;;;;;23.70;51.70;;;;;;5096504;28;19928;-58
2023/10/21 04:52:16;;;;;;;;;;;23.80;52.00;;;;;;5096650;28;20324;-58
2023/10/21 04:54:43;;;;;;;;;;;23.70;52.30;;;;;;5096500;28;20273;-58
2023/10/21 04:57:10;;;;;;;;;;;23.80;52.70;;;;;;5096543;28;20014;-58
2023/10/21 04:59:40;;;;;;;;;;;23.80;52.90;;;;;;5095952;28;19924;-58
2023/10/21 05:02:07;;;;;;;;;;;23.80;53.10;;;;;;5096456;28;19924;-59
2023/10/21 05:04:35;;;;;;;;;;;23.80;53.20;;;;;;5096037;28;20015;-58
2023/10/21 05:07:02;;;;;;;;;;;23.80;53.10;;;;;;5096068;28;19931;-59
2023/10/21 05:09:31;;;;;;;;;;;23.80;53.10;;;;;;5096261;28;20322;-59
2023/10/21 05:11:58;;;;;;;;;;;23.80;53.10;;;;;;5095953;28;20392;-59
2023/10/21 05:14:25;;;;;;;;;;;23.80;53.10;;;;;;5095878;28;19931;-58
2023/10/21 05:16:52;;;;;;;;;;;23.80;53.00;;;;;;5095846;28;20269;-58
2023/10/21 05:19:19;;;;;;;;;;;23.80;53.20;;;;;;5096040;28;19924;-59
2023/10/21 05:21:48;;;;;;;;;;;23.80;53.30;;;;;;5095655;28;19924;-59
2023/10/21 05:24:15;;;;;;;;;;;23.80;53.30;;;;;;5095674;28;20436;-58
2023/10/21 05:26:42;;;;;;;;;;;23.80;53.30;;;;;;5095656;28;20022;-58
2023/10/21 05:29:09;;;;;;;;;;;23.80;53.30;;;;;;5095466;28;20318;-59
2023/10/21 05:31:36;;;;;;;;;;;23.70;53.30;;;;;;5095938;28;19967;-58
2023/10/21 05:34:03;;;;;;;;;;;23.80;53.40;;;;;;5096006;28;19947;-58
2023/10/21 05:36:30;;;;;;;;;;;23.80;53.40;;;;;;5095935;28;19924;-59
2023/10/21 05:38:57;;;;;;;;;;;23.80;53.50;;;;;;5095344;28;19967;-58
2023/10/21 05:41:24;;;;;;;;;;;23.80;53.40;;;;;;5091059;28;19928;-58
2023/10/21 05:43:51;;;;;;;;;;;23.80;53.40;;;;;;5095537;28;20288;-58
2023/10/21 05:46:19;;;;;;;;;;;23.80;53.40;;;;;;5081335;28;19931;-58
2023/10/21 05:48:45;;;;;;;;;;;23.80;53.40;;;;;;5074971;28;19978;-58
2023/10/21 05:51:12;;;;;;;;;;;23.80;53.40;;;;;;5074908;28;19932;-58
2023/10/21 05:53:39;;;;;;;;;;;23.80;53.40;;;;;;5075123;28;19925;-58
2023/10/21 05:56:06;;;;;;;;;;;23.80;53.40;;;;;;5074872;28;19975;-58
2023/10/21 05:58:33;;;;;;;;;;;23.80;53.40;;;;;;5074905;28;19959;-58
2023/10/21 06:01:08;;;;;;;;;;;23.90;53.50;;;;;;5089843;28;19931;-58
2023/10/21 06:03:36;;;;;;;;;;;23.90;53.40;;;;;;5095126;28;19983;-58
2023/10/21 06:06:03;;;;;;;;;;;23.90;53.40;;;;;;5095006;28;19924;-58
2023/10/21 06:08:30;;;;;;;;;;;23.90;53.40;;;;;;5095128;28;19947;-57
2023/10/21 06:10:58;;;;;;;;;;;23.90;53.40;;;;;;5095350;28;19924;-59
2023/10/21 06:13:25;;;;;;;;;;;23.90;53.40;;;;;;5094432;28;20386;-58
2023/10/21 06:15:52;;;;;;;;;;;24.00;53.50;;;;;;5094573;28;20129;-58
2023/10/21 06:18:20;;;;;;;;;;;24.00;53.50;;;;;;5094935;28;20037;-58
2023/10/21 06:20:51;;;;;;;;;;;23.90;54.00;;;;;;5094648;28;20027;-58
2023/10/21 06:23:18;;;;;;;;;;;24.00;53.50;;;;;;5094605;28;19924;-59
2023/10/21 06:25:45;;;;;;;;;;;24.00;53.50;;;;;;5080575;28;19932;-58
2023/10/21 06:28:13;;;;;;;;;;;24.00;53.50;;;;;;5085003;28;19931;-58
2023/10/21 06:30:40;;;;;;;;;;;24.00;53.50;;;;;;5094006;28;19924;-58
2023/10/21 06:33:11;;;;;;;;;;;24.00;53.60;;;;;;5093482;28;19969;-59
2023/10/21 06:35:38;;;;;;;;;;;24.00;53.60;;;;;;5073767;28;19924;-59
2023/10/21 06:38:06;;;;;;;;;;;24.00;53.60;;;;;;5074387;28;20289;-58
2023/10/21 06:40:33;;;;;;;;;;;24.00;53.60;;;;;;5073237;28;20381;-59
2023/10/21 06:43:17;;;;;;;;;;;24.00;53.70;;;;;;5074116;28;19924;-59
2023/10/21 06:45:45;;;;;;;;;;;24.10;53.70;;;;;;5074109;28;19931;-58
2023/10/21 06:48:12;;;;;;;;;;;24.10;53.70;;;;;;5073798;28;19924;-59
2023/10/21 06:50:39;;;;;;;;;;;24.10;53.60;;;;;;5073988;28;19931;-59
2023/10/21 06:53:06;;;;;;;;;;;24.10;53.60;;;;;;5074003;28;19978;-59
2023/10/21 06:55:44;;;;;;;;;;;24.10;53.60;;;;;;5074025;28;19979;-59
2023/10/21 06:58:11;;;;;;;;;;;24.10;53.50;;;;;;5091727;28;20263;-59
2023/10/21 07:00:39;;;;;;;;;;;24.10;53.50;;;;;;5094181;28;19924;-59
2023/10/21 07:03:06;;;;;;;;;;;24.20;53.50;;;;;;5093987;28;19928;-59
2023/10/21 07:05:35;;;;;;;;;;;24.20;53.40;;;;;;5094336;28;19977;-59
2023/10/21 07:08:02;;;;;;;;;;;24.20;53.40;;;;;;5088280;28;19931;-59
2023/10/21 07:10:30;;;;;;;;;;;24.20;53.40;;;;;;5080242;28;19924;-59
2023/10/21 07:12:58;;;;;;;;;;;24.20;53.40;;;;;;5078948;28;19924;-59
2023/10/21 07:15:31;;;;;;;;;;;24.20;53.40;;;;;;5084875;28;19928;-59
2023/10/21 07:17:58;;;;;;;;;;;24.20;53.40;;;;;;5077577;28;19978;-59
2023/10/21 07:20:26;;;;;;;;;;;24.20;53.40;;;;;;5073938;28;19983;-59
2023/10/21 07:22:54;;;;;;;;;;;24.20;53.50;;;;;;5073523;28;19924;-58
2023/10/21 07:25:23;;;;;;;;;;;24.30;53.60;;;;;;5073778;28;19994;-58
2023/10/21 07:27:51;;;;;;;;;;;24.30;53.60;;;;;;5073596;28;20502;-59
2023/10/21 07:30:18;;;;;;;;;;;24.30;53.60;;;;;;5073696;28;19925;-58
2023/10/21 07:32:47;;;;;;;;;;;24.30;53.50;;;;;;5073242;28;20372;-59
2023/10/21 07:35:14;;;;;;;;;;;24.40;53.40;;;;;;5073372;28;19924;-58
2023/10/21 07:37:44;;;;;;;;;;;24.40;53.30;;;;;;5073303;28;19928;-58
2023/10/21 07:40:12;;;;;;;;;;;24.40;53.30;;;;;;5075897;28;19958;-58
2023/10/21 07:42:40;;;;;;;;;;;24.50;53.30;;;;;;5093463;28;20003;-59
2023/10/21 07:45:07;;;;;;;;;;;24.50;53.30;;;;;;5093908;28;19924;-58
2023/10/21 07:47:36;;;;;;;;;;;24.50;53.30;;;;;;5093609;28;19931;-58
2023/10/21 07:50:07;;;;;;;;;;;24.50;53.20;;;;;;5093588;28;19925;-58
2023/10/21 07:52:37;;;;;;;;;;;24.50;53.20;;;;;;5097600;28;20348;-59
2023/10/21 07:55:04;;;;;;;;;;;24.60;53.30;;;;;;5097752;28;19969;-58
2023/10/21 07:57:32;;;;;;;;;;;24.50;53.20;;;;;;5096768;28;20372;-58
2023/10/21 07:59:59;;;;;;;;;;;24.60;53.30;;;;;;5097198;28;19930;-58
2023/10/21 08:02:26;;;;;;;;;;;24.60;53.30;;;;;;5088761;28;19936;-58
2023/10/21 08:04:54;;;;;;;;;;;24.60;53.40;;;;;;5076987;28;19924;-58
2023/10/21 08:07:21;;;;;;;;;;;24.60;53.30;;;;;;5082350;28;19931;-58
2023/10/21 08:09:49;;;;;;;;;;;24.60;53.30;;;;;;5097178;28;19924;-58
2023/10/21 08:12:16;;;;;;;;;;;24.60;53.30;;;;;;5097428;28;19932;-58
2023/10/21 08:14:43;;;;;;;;;;;24.60;53.30;;;;;;5097458;28;20287;-58
2023/10/21 08:17:10;;;;;;;;;;;24.60;53.40;;;;;;5096977;28;19924;-58
2023/10/21 08:19:37;;;;;;;;;;;24.60;53.40;;;;;;5097124;28;19993;-58
2023/10/21 08:22:05;;;;;;;;;;;24.60;53.40;;;;;;5097124;28;20011;-58
2023/10/21 08:24:33;;;;;;;;;;;24.60;53.40;;;;;;5097474;28;19924;-59
2023/10/21 08:27:02;;;;;;;;;;;24.60;53.40;;;;;;5096930;28;19930;-58
2023/10/21 08:29:30;;;;;;;;;;;24.60;53.40;;;;;;5097066;28;19928;-58
2023/10/21 08:31:57;;;;;;;;;;;24.60;53.40;;;;;;5096669;28;20475;-59
2023/10/21 08:34:24;;;;;;;;;;;24.60;53.40;;;;;;5097018;28;19959;-58
2023/10/21 08:36:51;;;;;;;;;;;24.70;53.50;;;;;;5097078;28;19964;-58
2023/10/21 08:39:17;;;;;;;;;;;24.70;53.50;;;;;;5096869;28;19924;-58
2023/10/21 08:41:45;;;;;;;;;;;24.70;53.40;;;;;;5096806;28;20343;-58
2023/10/21 08:44:12;;;;;;;;;;;24.70;53.40;;;;;;5090508;28;19955;-58
2023/10/21 08:46:41;;;;;;;;;;;24.70;53.40;;;;;;5092657;28;20453;-58
2023/10/21 08:49:09;;;;;;;;;;;24.70;53.60;;;;;;5090260;28;19963;-58
2023/10/21 08:51:37;;;;;;;;;;;24.70;53.60;;;;;;5075760;28;19928;-60
2023/10/21 08:54:04;;;;;;;;;;;24.70;53.50;;;;;;5075966;28;19931;-59
2023/10/21 08:56:32;;;;;;;;;;;24.70;54.00;;;;;;5075471;28;20292;-58
2023/10/21 08:59:00;;;;;;;;;;;24.80;53.50;;;;;;5075246;28;19928;-59
2023/10/21 09:01:27;;;;;;;;;;;24.80;53.40;;;;;;5075430;28;19970;-58
2023/10/21 09:03:55;;;;;;;;;;;24.80;53.30;;;;;;5074051;28;20380;-59
2023/10/21 09:06:23;;;;;;;;;;;24.80;53.40;;;;;;5076189;28;19971;-59
2023/10/21 09:08:51;;;;;;;;;;;24.90;53.30;;;;;;5058447;28;19924;-58
2023/10/21 09:11:19;;;;;;;;;;;24.90;53.20;;;;;;5075796;28;19978;-58
2023/10/21 09:13:47;;;;;;;;;;;24.90;53.00;;;;;;5075897;28;19978;-59
2023/10/21 09:16:25;;;;;;;;;;;24.90;52.90;;;;;;5075620;28;20360;-59
2023/10/21 09:18:59;;;;;;;;;;;25.00;52.90;;;;;;5075615;28;19925;-58
2023/10/21 09:21:31;;;;;;;;;;;25.00;52.80;;;;;;5075808;28;19980;-59
2023/10/21 09:23:59;;;;;;;;;;;25.00;52.80;;;;;;5075454;28;20015;-59
2023/10/21 09:26:37;;;;;;;;;;;25.00;52.70;;;;;;5075869;28;19932;-58
2023/10/21 09:29:08;;;;;;;;;;;25.00;52.70;;;;;;5075035;28;19978;-58
2023/10/21 09:31:44;;;;;;;;;;;25.00;52.70;;;;;;5075023;28;19982;-58
2023/10/21 09:34:19;;;;;;;;;;;25.00;52.70;;;;;;5075232;28;20015;-58
2023/10/21 09:36:47;;;;;;;;;;;25.00;52.70;;;;;;5075355;28;19924;-59
2023/10/21 09:39:14;;;;;;;;;;;25.00;52.70;;;;;;5075699;28;19924;-58
2023/10/21 09:41:42;;;;;;;;;;;25.00;52.70;;;;;;5075347;28;19986;-58
2023/10/21 09:44:10;;;;;;;;;;;25.00;52.70;;;;;;5075039;28;19925;-58
2023/10/21 09:46:37;;;;;;;;;;;25.00;52.70;;;;;;5075433;28;20023;-58
2023/10/21 09:49:05;;;;;;;;;;;25.00;52.70;;;;;;5075299;28;19929;-61
2023/10/21 09:51:34;;;;;;;;;;;25.00;52.70;;;;;;5075315;28;19925;-58
2023/10/21 09:54:06;;;;;;;;;;;25.00;52.70;;;;;;5074123;28;19924;-59
2023/10/21 09:56:34;;;;;;;;;;;25.00;52.70;;;;;;5074444;28;19979;-61
2023/10/21 09:59:02;;;;;;;;;;;25.00;52.60;;;;;;5074676;28;19931;-60
2023/10/21 10:01:30;;;;;;;;;;;25.00;52.60;;;;;;5075005;28;19976;-60
2023/10/21 10:03:59;;;;;;;;;;;25.00;52.50;;;;;;5074654;28;20376;-59
2023/10/21 10:06:27;;;;;;;;;;;25.10;52.50;;;;;;5075105;28;19931;-61
2023/10/21 10:09:06;;;;;;;;;;;25.10;52.40;;;;;;5074647;28;20384;-63
2023/10/21 10:11:36;;;;;;;;;;;25.10;52.40;;;;;;5074619;28;20019;-58
2023/10/21 10:14:03;;;;;;;;;;;25.10;52.40;;;;;;5074706;28;20021;-59
2023/10/21 10:16:32;;;;;;;;;;;25.10;52.50;;;;;;5074498;28;19925;-58
2023/10/21 10:18:59;;;;;;;;;;;25.10;52.50;;;;;;5074644;28;19931;-59
2023/10/21 10:21:27;;;;;;;;;;;25.10;52.50;;;;;;5073482;28;20011;-59
2023/10/21 10:24:02;;;;;;;;;;;25.10;52.50;;;;;;5074169;28;19935;-59
2023/10/21 10:26:37;;;;;;;;;;;25.10;52.60;;;;;;5074562;28;20388;-58
2023/10/21 10:29:25;;;;;;;;;;;25.00;52.50;;;;;;5074514;28;19971;-59
2023/10/21 10:32:14;;;;;;;;;;;25.00;52.60;;;;;;5072879;28;19990;-59
2023/10/21 10:34:54;;;;;;;;;;;25.00;52.70;;;;;;5074398;28;19924;-59
2023/10/21 10:37:29;;;;;;;;;;;25.00;52.70;;;;;;5074359;28;19963;-59
2023/10/21 10:39:56;;;;;;;;;;;25.00;52.70;;;;;;5072830;28;20023;-59
2023/10/21 10:42:28;;;;;;;;;;;25.00;52.70;;;;;;5074262;28;20376;-59
2023/10/21 10:44:55;;;;;;;;;;;25.00;52.70;;;;;;5073939;28;20034;-60
2023/10/21 10:47:22;;;;;;;;;;;25.00;52.70;;;;;;5074195;28;19925;-59
2023/10/21 10:50:00;;;;;;;;;;;25.00;52.70;;;;;;5073851;28;19924;-59
2023/10/21 10:52:35;;;;;;;;;;;25.00;52.80;;;;;;5074066;28;19931;-58
2023/10/21 10:55:03;;;;;;;;;;;25.00;52.80;;;;;;5074263;28;19924;-59
2023/10/21 10:57:30;;;;;;;;;;;25.00;52.90;;;;;;5074009;28;20323;-59
2023/10/21 10:59:57;;;;;;;;;;;25.00;52.90;;;;;;5073980;28;19994;-60
2023/10/21 11:02:27;;;;;;;;;;;25.00;53.00;;;;;;5086101;28;19955;-59
2023/10/21 11:04:59;;;;;;;;;;;25.00;53.00;;;;;;5071843;28;19962;-58
2023/10/21 11:07:30;;;;;;;;;;;24.90;53.20;;;;;;5072203;28;19931;-59
2023/10/21 11:10:01;;;;;;;;;;;24.90;53.30;;;;;;5073467;28;19970;-59
2023/10/21 11:12:28;;;;;;;;;;;24.90;53.30;;;;;;5072716;28;20333;-59
2023/10/21 11:14:57;;;;;;;;;;;24.90;53.40;;;;;;5073408;28;19978;-58
2023/10/21 11:17:24;;;;;;;;;;;24.90;53.50;;;;;;5073151;28;20387;-59
2023/10/21 11:19:51;;;;;;;;;;;24.90;53.50;;;;;;5073104;28;19925;-59
2023/10/21 11:22:25;;;;;;;;;;;24.90;53.50;;;;;;5072872;28;19979;-59
2023/10/21 11:24:53;;;;;;;;;;;24.90;53.60;;;;;;5075898;28;19970;-59
2023/10/21 11:27:19;;;;;;;;;;;24.90;53.50;;;;;;5072811;28;19932;-59
2023/10/21 11:29:47;;;;;;;;;;;24.90;53.60;;;;;;5079675;28;19939;-58
2023/10/21 11:32:14;;;;;;;;;;;24.90;53.70;;;;;;5093500;28;20018;-58
2023/10/21 11:34:44;;;;;;;;;;;24.90;53.60;;;;;;5090509;28;19931;-59
2023/10/21 11:37:11;;;;;;;;;;;24.90;53.60;;;;;;5079077;28;19976;-59
2023/10/21 11:39:41;;;;;;;;;;;25.00;53.60;;;;;;5076441;28;19954;-58
2023/10/21 11:42:17;;;;;;;;;;;25.00;53.50;;;;;;5093297;28;19954;-58
2023/10/21 11:44:55;;;;;;;;;;;25.00;53.50;;;;;;5085063;28;19932;-58
2023/10/21 11:47:24;;;;;;;;;;;25.00;53.40;;;;;;5093583;28;20031;-58
2023/10/21 11:49:52;;;;;;;;;;;25.00;53.70;;;;;;5082292;28;19962;-58
2023/10/21 11:52:21;;;;;;;;;;;25.00;53.60;;;;;;5083892;28;19924;-59
2023/10/21 11:55:20;;;;;;;;;;;25.00;53.60;;;;;;5091927;28;20334;-58
2023/10/21 12:01:38;;;;;;;;;;;25.00;53.60;;;;;;5083326;28;19994;-59
2023/10/21 12:07:20;;;;;;;;;;;25.00;53.60;;;;;;5081835;28;19936;-59
2023/10/21 12:12:21;;;;;;;;;;;25.00;53.60;;;;;;5073116;28;20391;-59
2023/10/21 12:20:48;;;;;;;;;;;25.00;53.60;;;;;;5072612;28;19959;-60
2023/10/21 12:23:38;;;;;;;;;;;25.00;53.60;;;;;;5071514;28;20289;-59
2023/10/21 12:34:34;;;;;;;;;;;25.10;53.60;;;;;;5072700;28;19928;-59
2023/10/21 12:39:47;;;;;;;;;;;25.10;53.60;;;;;;5075738;28;19931;-58
2023/10/21 12:42:21;;;;;;;;;;;25.10;53.60;;;;;;5075547;28;20011;-59
2023/10/21 12:44:52;;;;;;;;;;;25.10;53.50;;;;;;5074916;28;19924;-57
2023/10/21 12:47:20;;;;;;;;;;;25.10;53.50;;;;;;5089411;28;19939;-58
2023/10/21 12:49:50;;;;;;;;;;;25.10;53.50;;;;;;5076094;28;20438;-58
2023/10/21 12:52:17;;;;;;;;;;;25.10;53.40;;;;;;5077348;28;19932;-58
2023/10/21 12:54:44;;;;;;;;;;;25.10;53.30;;;;;;5078780;28;19924;-57
2023/10/21 12:57:11;;;;;;;;;;;25.20;53.30;;;;;;5082683;28;20404;-58
2023/10/21 12:59:38;;;;;;;;;;;25.10;53.30;;;;;;5082941;28;19925;-58
2023/10/21 13:02:07;;;;;;;;;;;25.20;53.40;;;;;;5080508;28;19975;-59
2023/10/21 13:04:37;;;;;;;;;;;25.10;53.30;;;;;;5083314;28;19929;-58
2023/10/21 13:07:05;;;;;;;;;;;25.10;53.30;;;;;;5094020;28;19924;-58
2023/10/21 13:09:32;;;;;;;;;;;25.20;53.30;;;;;;5096325;28;20014;-58
2023/10/21 13:12:00;;;;;;;;;;;25.10;53.30;;;;;;5094766;28;20372;-58
2023/10/21 13:14:28;;;;;;;;;;;25.10;53.40;;;;;;5096080;28;19924;-58
2023/10/21 13:16:55;;;;;;;;;;;25.10;53.50;;;;;;5095973;28;19978;-58
2023/10/21 13:19:24;;;;;;;;;;;25.10;53.60;;;;;;5095906;28;19928;-58
2023/10/21 13:21:54;;;;;;;;;;;25.10;53.60;;;;;;5096061;28;20272;-57
2023/10/21 13:24:21;;;;;;;;;;;25.00;53.70;;;;;;5096067;28;19954;-59
2023/10/21 13:26:48;;;;;;;;;;;25.00;53.70;;;;;;5096207;28;19971;-58
2023/10/21 13:29:15;;;;;;;;;;;25.00;53.80;;;;;;5095700;28;20387;-58
2023/10/21 13:31:43;;;;;;;;;;;25.00;53.80;;;;;;5096098;28;19924;-57
2023/10/21 13:34:10;;;;;;;;;;;25.00;53.90;;;;;;5095524;28;20437;-57
2023/10/21 13:36:37;;;;;;;;;;;24.90;53.90;;;;;;5095689;28;19954;-57
2023/10/21 13:39:15;;;;;;;;;;;24.90;53.90;;;;;;5095860;28;20358;-58
2023/10/21 13:41:42;;;;;;;;;;;24.90;53.90;;;;;;5094112;28;19931;-58
2023/10/21 13:44:09;;;;;;;;;;;24.90;54.00;;;;;;5095360;28;20095;-57
2023/10/21 13:46:36;;;;;;;;;;;24.90;54.00;;;;;;5095813;28;20019;-58
2023/10/21 13:49:05;;;;;;;;;;;24.90;54.10;;;;;;5095033;28;19924;-57
2023/10/21 13:51:32;;;;;;;;;;;24.90;54.10;;;;;;5094407;28;19924;-58
2023/10/21 13:53:59;;;;;;;;;;;24.90;54.20;;;;;;5095450;28;19928;-58
2023/10/21 13:56:26;;;;;;;;;;;24.90;54.40;;;;;;5095150;28;20373;-58
2023/10/21 13:58:53;;;;;;;;;;;24.80;54.20;;;;;;5093796;28;19924;-58
2023/10/21 14:01:24;;;;;;;;;;;24.80;54.30;;;;;;5094951;28;20288;-58
2023/10/21 14:03:51;;;;;;;;;;;24.80;54.30;;;;;;5094901;28;19924;-58
2023/10/21 14:06:21;;;;;;;;;;;24.80;54.30;;;;;;5094984;28;19924;-58
2023/10/21 14:08:48;;;;;;;;;;;24.80;54.20;;;;;;5095192;28;19924;-58
2023/10/21 14:11:15;;;;;;;;;;;24.80;54.10;;;;;;5095215;28;19924;-58
2023/10/21 14:13:46;;;;;;;;;;;24.80;54.00;;;;;;5094689;28;20277;-58
2023/10/21 14:16:13;;;;;;;;;;;24.80;54.00;;;;;;5094765;28;19924;-58
2023/10/21 14:18:42;;;;;;;;;;;24.80;54.00;;;;;;5094852;28;20436;-58
2023/10/21 14:21:09;;;;;;;;;;;24.80;54.00;;;;;;5095193;28;19924;-58
2023/10/21 14:23:36;;;;;;;;;;;24.80;54.00;;;;;;5094635;28;19924;-58
2023/10/21 14:26:04;;;;;;;;;;;24.70;54.10;;;;;;5094937;28;19964;-59
2023/10/21 14:28:31;;;;;;;;;;;24.80;54.20;;;;;;5094824;28;20374;-60
2023/10/21 14:30:59;;;;;;;;;;;24.70;54.10;;;;;;5094855;28;19978;-58
2023/10/21 14:33:30;;;;;;;;;;;24.70;54.20;;;;;;5094451;28;20384;-58
2023/10/21 14:35:58;;;;;;;;;;;24.70;54.20;;;;;;5094370;28;19932;-58
2023/10/21 14:38:29;;;;;;;;;;;24.70;54.20;;;;;;5094960;28;19924;-58
2023/10/21 14:40:55;;;;;;;;;;;24.70;54.20;;;;;;5094459;28;20447;-58
2023/10/21 14:43:22;;;;;;;;;;;24.70;54.20;;;;;;5094443;28;19931;-58
2023/10/21 14:45:52;;;;;;;;;;;24.60;54.20;;;;;;5077928;28;19925;-58
2023/10/21 14:48:19;;;;;;;;;;;24.60;54.20;;;;;;5073973;28;19956;-58
2023/10/21 14:50:50;;;;;;;;;;;24.60;54.30;;;;;;5073964;28;20443;-58